Time;durP1;ratioP1;P1;durP2;ratioP2;P2;SDS_P1;SDS_P2;PMS_P1;PMS_P2;Temp;Humidity;BMP_temperature;BMP_pressure;BME280_temperature;BME280_humidity;BME280_pressure;Samples;Min_cycle;Max_cycle;Signal;HPM_P1;HPM_P2
2022/04/28 00:02:12;;;;;;;21.00;14.43;;;;;;;10.43;58.07;102408.78;4761959;29;120537;-87
2022/04/28 00:04:38;;;;;;;25.88;15.30;;;;;;;10.46;58.23;102412.69;4786163;29;121928;-84
2022/04/28 00:07:04;;;;;;;20.58;14.75;;;;;;;10.37;58.57;102409.63;4781766;29;120582;-84
2022/04/28 00:09:30;;;;;;;26.25;15.30;;;;;;;10.23;58.23;102388.59;4785030;29;121647;-84
2022/04/28 00:11:55;;;;;;;26.15;16.45;;;;;;;10.24;58.45;102398.41;4790601;29;119095;-82
2022/04/28 00:14:21;;;;;;;28.70;16.02;;;;;;;10.24;58.30;102400.34;4786030;29;118518;-84
2022/04/28 00:16:47;;;;;;;23.13;15.82;;;;;;;10.27;58.44;102403.06;4800797;29;122005;-82
2022/04/28 00:19:13;;;;;;;23.65;15.20;;;;;;;10.21;58.40;102407.44;4812007;29;119406;-81
2022/04/28 00:21:39;;;;;;;26.98;16.20;;;;;;;10.10;58.37;102380.06;4791895;29;121070;-81
2022/04/28 00:24:05;;;;;;;23.13;15.98;;;;;;;10.22;58.36;102403.50;4799616;29;121797;-81
2022/04/28 00:26:31;;;;;;;24.17;16.52;;;;;;;10.08;58.41;102385.19;4823549;29;118662;-81
2022/04/28 00:28:58;;;;;;;28.02;16.50;;;;;;;10.10;58.53;102388.28;4784245;29;121565;-81
2022/04/28 00:31:24;;;;;;;24.10;16.05;;;;;;;10.08;58.95;102390.66;4791762;29;118885;-82
2022/04/28 00:33:50;;;;;;;25.08;15.50;;;;;;;10.02;58.78;102381.31;4764718;29;120359;-81
2022/04/28 00:36:15;;;;;;;22.05;14.43;;;;;;;10.13;58.22;102405.91;4790394;29;121657;-80
2022/04/28 00:38:41;;;;;;;25.52;15.48;;;;;;;10.05;58.44;102396.19;4794980;29;120164;-80
2022/04/28 00:41:10;;;;;;;25.88;14.90;;;;;;;10.13;58.23;102414.91;4774948;29;122456;-81
2022/04/28 00:43:53;;;;;;;24.83;16.20;;;;;;;10.04;58.16;102409.09;4777621;29;119996;-81
2022/04/28 00:46:20;;;;;;;19.60;15.32;;;;;;;9.91;58.14;102385.31;4950577;23;119636;-83
2022/04/28 00:51:34;;;;;;;27.75;16.48;;;;;;;9.93;58.25;102391.94;4872064;23;120352;-82
2022/04/28 00:54:02;;;;;;;25.88;16.52;;;;;;;9.54;58.27;102342.94;4851361;28;121120;-81
2022/04/28 00:56:30;;;;;;;24.15;14.88;;;;;;;9.55;58.29;102339.03;4853332;23;121881;-82
2022/04/28 00:59:02;;;;;;;23.20;15.48;;;;;;;9.67;57.46;102363.19;4819130;29;118561;-82
2022/04/28 01:01:29;;;;;;;25.38;17.27;;;;;;;9.63;57.85;102367.13;4812907;29;119447;-82
2022/04/28 01:03:55;;;;;;;28.67;17.90;;;;;;;9.77;58.24;102387.00;4821263;29;121628;-82
2022/04/28 01:06:21;;;;;;;22.35;17.77;;;;;;;9.53;58.09;102355.09;4822948;29;119351;-84
2022/04/28 01:08:47;;;;;;;27.23;17.58;;;;;;;9.57;58.79;102364.06;4805716;29;121399;-84
2022/04/28 01:11:16;;;;;;;23.13;16.33;;;;;;;9.87;58.30;102411.97;4806281;29;121524;-82
2022/04/28 01:13:49;;;;;;;25.95;17.20;;;;;;;9.43;58.13;102353.97;4816434;29;121108;-84
2022/04/28 01:16:25;;;;;;;23.45;15.18;;;;;;;9.58;58.17;102384.78;4835093;29;118804;-81
2022/04/28 01:18:52;;;;;;;25.73;17.70;;;;;;;9.36;57.79;102347.75;4821045;29;119201;-84
2022/04/28 01:21:20;;;;;;;28.35;19.17;;;;;;;9.47;58.22;102378.63;4805156;29;119912;-82
2022/04/28 01:23:54;;;;;;;30.90;19.10;;;;;;;9.53;58.69;102391.47;4831518;29;119183;-81
2022/04/28 01:26:20;;;;;;;22.40;19.15;;;;;;;9.29;58.57;102358.75;4791053;29;119026;-83
2022/04/28 01:28:47;;;;;;;27.48;19.48;;;;;;;9.40;58.76;102373.94;4820535;29;119447;-85
2022/04/28 01:31:12;;;;;;;29.77;19.67;;;;;;;9.39;59.21;102375.13;4819024;29;119204;-81
2022/04/28 01:33:43;;;;;;;29.98;20.45;;;;;;;9.27;58.88;102356.44;4808865;29;119170;-81
2022/04/28 01:36:13;;;;;;;30.60;20.52;;;;;;;9.43;59.13;102388.78;4798753;29;123627;-81
2022/04/28 01:38:39;;;;;;;30.27;19.05;;;;;;;9.51;59.16;102395.81;4814496;29;119390;-81
2022/04/28 01:41:05;;;;;;;25.35;19.63;;;;;;;9.34;59.21;102377.50;4804275;29;120270;-81
2022/04/28 01:43:34;;;;;;;28.67;18.45;;;;;;;9.37;58.77;102390.41;4810969;23;119173;-81
2022/04/28 01:46:00;;;;;;;25.92;18.33;;;;;;;9.43;58.17;102399.75;4784943;29;119298;-81
2022/04/28 01:48:47;;;;;;;26.92;18.95;;;;;;;9.22;58.34;102376.00;4814301;29;121771;-82
2022/04/28 01:57:16;;;;;;;25.45;17.73;;;;;;;9.33;58.47;102414.28;4799294;29;120335;-83
2022/04/28 02:00:02;;;;;;;25.33;16.80;;;;;;;9.17;58.28;102399.09;4801127;29;119326;-86
2022/04/28 02:02:42;;;;;;;24.38;17.20;;;;;;;8.95;57.77;102378.47;4785259;29;120366;-80
2022/04/28 02:05:10;;;;;;;25.02;18.10;;;;;;;9.13;58.14;102412.03;4783078;29;121518;-84
2022/04/28 02:07:38;;;;;;;24.67;18.02;;;;;;;8.82;58.09;102369.16;4799341;29;119508;-81
2022/04/28 02:10:15;;;;;;;28.55;18.58;;;;;;;9.30;57.90;102446.00;4811050;23;121117;31
2022/04/28 02:12:41;;;;;;;25.95;17.73;;;;;;;8.82;58.01;102375.41;4763447;29;121958;-83
2022/04/28 02:15:25;;;;;;;23.38;16.92;;;;;;;8.91;57.88;102394.13;4800027;29;119297;-81
2022/04/28 02:18:17;;;;;;;28.52;18.17;;;;;;;8.75;57.11;102380.09;4781879;29;120950;-84
2022/04/28 02:20:43;;;;;;;27.95;18.23;;;;;;;8.93;58.01;102408.19;4782145;29;121034;-79
2022/04/28 02:23:16;;;;;;;27.58;19.15;;;;;;;9.14;58.26;102440.97;4833297;23;119575;31
2022/04/28 02:25:44;;;;;;;25.05;18.10;;;;;;;8.82;57.65;102400.03;4764185;29;122093;-83
2022/04/28 02:28:10;;;;;;;25.20;17.85;;;;;;;8.97;58.00;102425.38;4765030;29;119689;-84
2022/04/28 02:30:36;;;;;;;26.08;18.58;;;;;;;8.72;57.97;102386.38;4768372;29;119384;-85
2022/04/28 02:33:11;;;;;;;23.42;17.48;;;;;;;8.87;58.30;102416.03;4764282;29;119709;-84
2022/04/28 02:35:57;;;;;;;25.88;17.40;;;;;;;8.51;57.85;102363.38;4749396;29;120007;-81
2022/04/28 02:38:23;;;;;;;23.92;17.50;;;;;;;8.67;57.50;102384.06;4750876;29;119389;-81
2022/04/28 02:40:52;;;;;;;26.38;18.63;;;;;;;8.46;58.16;102363.00;4751495;29;119662;-81
2022/04/28 02:43:19;;;;;;;24.65;18.27;;;;;;;8.42;57.95;102365.75;4762342;29;122060;-83
2022/04/28 02:45:52;;;;;;;26.02;17.92;;;;;;;8.44;58.35;102368.88;4775244;29;119849;-81
2022/04/28 02:48:22;;;;;;;29.15;18.50;;;;;;;8.55;58.24;102388.00;4761867;29;119919;-81
2022/04/28 02:50:48;;;;;;;29.33;18.30;;;;;;;8.51;58.62;102388.00;4772663;29;119347;-83
2022/04/28 02:53:14;;;;;;;24.38;17.67;;;;;;;8.48;57.77;102386.03;4761579;29;122098;-83
2022/04/28 02:55:45;;;;;;;24.02;17.23;;;;;;;8.84;58.12;102448.91;4779299;29;119406;-84
2022/04/28 02:58:13;;;;;;;24.67;18.88;;;;;;;8.42;58.13;102382.16;4738764;29;122537;-83
2022/04/28 03:00:39;;;;;;;29.63;19.33;;;;;;;8.50;57.98;102396.59;4762928;29;121684;-83
2022/04/28 03:03:10;;;;;;;28.10;19.73;;;;;;;8.77;58.40;102443.44;4818531;23;119585;31
2022/04/28 03:11:11;;;;;;;27.55;19.80;;;;;;;8.39;58.75;102402.09;4781001;29;121369;-84
2022/04/28 03:13:38;;;;;;;26.80;18.48;;;;;;;8.18;59.03;102363.81;4803691;29;119255;-84
2022/04/28 03:16:05;;;;;;;24.20;18.77;;;;;;;8.26;59.37;102379.03;4814453;29;119919;-84
2022/04/28 03:18:51;;;;;;;24.50;17.60;;;;;;;8.29;58.98;102383.72;4830836;29;119541;-84
2022/04/28 03:21:17;;;;;;;22.25;17.02;;;;;;;8.72;58.47;102436.41;4791656;29;121691;-81
2022/04/28 03:23:42;;;;;;;25.33;18.05;;;;;;;8.40;58.49;102398.19;4800546;29;119584;-83
2022/04/28 03:26:13;;;;;;;22.60;17.23;;;;;;;8.28;58.04;102379.41;4817757;29;119283;-81
2022/04/28 03:28:39;;;;;;;26.60;17.70;;;;;;;8.26;58.55;102379.03;4812909;29;119964;-85
2022/04/28 03:31:06;;;;;;;23.45;17.85;;;;;;;8.36;58.60;102399.38;4797966;29;120597;-84
2022/04/28 03:33:47;;;;;;;22.63;17.40;;;;;;;8.32;58.02;102396.63;4810692;29;121218;-84
2022/04/28 03:38:58;;;;;;;22.50;17.27;;;;;;;8.31;57.79;102404.03;4812137;29;122459;-82
2022/04/28 03:41:24;;;;;;;23.67;17.48;;;;;;;8.06;58.15;102373.22;4795992;29;119136;-82
2022/04/28 03:43:51;;;;;;;25.25;17.38;;;;;;;8.35;57.99;102417.72;4810852;29;119121;-84
2022/04/28 03:46:18;;;;;;;23.23;17.70;;;;;;;8.27;58.37;102410.66;4796485;29;121074;-80
2022/04/28 03:48:44;;;;;;;23.23;17.25;;;;;;;8.32;58.58;102413.81;4787038;29;122074;-84
2022/04/28 03:51:11;;;;;;;25.73;16.58;;;;;;;8.25;58.12;102416.53;4797752;29;120961;-85
2022/04/28 03:53:40;;;;;;;21.10;15.90;;;;;;;8.12;57.51;102406.38;4818086;29;121549;-83
2022/04/28 03:56:12;;;;;;;21.77;16.10;;;;;;;8.16;57.62;102410.69;4798041;29;119241;-82
2022/04/28 03:58:38;;;;;;;22.08;15.82;;;;;;;8.03;57.77;102387.63;4800623;29;121567;-84
2022/04/28 04:01:04;;;;;;;21.25;15.48;;;;;;;8.16;58.29;102416.16;4787715;29;120163;-84
2022/04/28 04:03:50;;;;;;;23.00;15.18;;;;;;;8.27;59.42;102416.91;4784670;29;119441;-83
2022/04/28 04:06:16;;;;;;;22.80;15.60;;;;;;;8.38;59.69;102424.38;4810514;29;120181;-84
2022/04/28 04:08:49;;;;;;;22.80;15.68;;;;;;;8.45;60.77;102419.66;4818022;29;119341;-82
2022/04/28 04:11:16;;;;;;;24.27;15.90;;;;;;;8.31;61.11;102397.78;4814728;29;119634;-80
2022/04/28 04:13:42;;;;;;;22.40;15.45;;;;;;;8.47;61.35;102400.91;4781228;29;121737;-82
2022/04/28 04:16:08;;;;;;;23.65;15.23;;;;;;;8.81;61.15;102444.22;4767897;29;119370;-80
2022/04/28 04:18:53;;;;;;;44.65;15.30;;;;;;;8.79;61.10;102425.47;4798606;29;120939;-83
2022/04/28 04:21:26;;;;;;;24.05;15.52;;;;;;;8.96;61.75;102447.69;4798986;29;119857;-83
2022/04/28 04:23:55;;;;;;;21.83;14.40;;;;;;;8.86;61.56;102422.69;4808538;29;120064;-84
2022/04/28 04:26:21;;;;;;;23.67;12.95;;;;;;;8.98;61.43;102437.13;4802287;29;120831;-85
2022/04/28 04:28:48;;;;;;;20.98;13.10;;;;;;;8.84;61.41;102413.31;4805999;29;119307;-82
2022/04/28 04:34:59;;;;;;;17.58;12.63;;;;;;;9.31;61.07;102477.69;4784722;29;121860;-84
2022/04/28 04:37:39;;;;;;;18.67;12.07;;;;;;;9.29;61.05;102468.31;4792956;29;119633;-82
2022/04/28 04:40:06;;;;;;;19.25;12.25;;;;;;;9.30;60.47;102465.16;4801032;29;121394;-82
2022/04/28 04:42:32;;;;;;;22.63;12.15;;;;;;;9.39;60.46;102483.91;4801319;29;119078;-81
2022/04/28 04:45:00;;;;;;;22.45;11.85;;;;;;;9.37;60.95;102487.03;4802572;29;119335;-82
2022/04/28 04:47:30;;;;;;;19.77;12.25;;;;;;;9.30;60.52;102478.06;4798019;29;121630;-81
2022/04/28 04:50:07;;;;;;;17.23;11.65;;;;;;;9.37;60.45;102483.53;4818780;29;119399;-84
2022/04/28 04:52:43;;;;;;;;;;;;;;;9.37;60.42;102494.47;4827174;29;119148;-84
2022/04/28 04:55:14;;;;;;;;;;;;;;;9.38;60.29;102504.25;4811924;29;120110;-83
2022/04/28 04:57:51;;;;;;;16.67;11.52;;;;;;;9.39;60.31;102501.13;4823312;29;119176;-82
2022/04/28 05:00:20;;;;;;;13.77;10.70;;;;;;;9.40;60.03;102496.41;4804547;29;121286;-81
2022/04/28 05:03:08;;;;;;;12.75;10.98;;;;;;;9.37;60.59;102494.47;4818216;29;122002;-84
2022/04/28 05:05:53;;;;;;;14.85;10.93;;;;;;;9.42;60.25;102505.78;4805468;29;119891;-84
2022/04/28 05:08:23;;;;;;;17.75;12.55;;;;;;;9.48;59.87;102508.91;4821142;29;119146;-81
2022/04/28 05:11:00;;;;;;;14.57;12.27;;;;;;;9.41;60.36;102504.22;4803444;29;122741;-84
2022/04/28 05:13:26;;;;;;;16.00;12.65;;;;;;;9.52;60.42;102521.41;4802415;29;121260;-82
2022/04/28 05:15:54;;;;;;;16.35;12.20;;;;;;;9.51;60.63;102517.13;4815904;29;119561;-84
2022/04/28 05:18:34;;;;;;;17.92;13.77;;;;;;;9.60;60.78;102524.91;4819084;29;119559;-81
2022/04/28 05:21:18;;;;;;;;;;;;;;;9.66;60.28;102525.25;4803232;29;120637;-83
2022/04/28 05:24:07;;;;;;;18.38;12.32;;;;;;;9.71;60.89;102522.91;4811408;29;123280;-83
2022/04/28 05:26:51;;;;;;;19.85;12.90;;;;;;;9.72;61.03;102521.72;4818980;29;119097;-84
2022/04/28 05:29:46;;;;;;;19.35;13.15;;;;;;;9.80;60.94;102525.19;4777872;29;119379;-81
2022/04/28 05:32:35;;;;;;;20.35;13.18;;;;;;;9.99;61.52;102537.63;4807807;29;121774;-81
2022/04/28 05:35:19;;;;;;;20.08;13.10;;;;;;;10.00;61.35;102520.78;4805006;29;118383;-82
2022/04/28 05:37:45;;;;;;;28.05;13.82;;;;;;;10.02;61.27;102520.38;4815258;29;119037;-81
2022/04/28 05:40:12;;;;;;;22.88;13.70;;;;;;;10.13;61.71;102530.06;4779851;29;123031;-80
2022/04/28 05:45:45;;;;;;;23.17;12.80;;;;;;;10.34;61.17;102531.91;4807460;29;120547;-80
2022/04/28 05:48:16;;;;;;;23.45;12.98;;;;;;;10.51;61.35;102543.16;4803463;29;120809;-85
2022/04/28 05:50:44;;;;;;;25.13;11.93;;;;;;;10.49;62.00;102531.81;4785149;29;121002;-85
2022/04/28 05:53:12;;;;;;;29.40;12.63;;;;;;;10.55;61.69;102522.75;4798668;29;119340;-84
2022/04/28 05:55:42;;;;;;;23.13;11.45;;;;;;;10.78;61.83;102544.09;4780981;29;119649;-87
2022/04/28 05:58:11;;;;;;;23.88;9.60;;;;;;;10.82;61.88;102539.34;4783679;29;119379;-87
2022/04/28 06:00:40;;;;;;;24.08;9.35;;;;;;;10.90;61.55;102534.59;4795887;29;120193;-88
2022/04/28 06:03:06;;;;;;;26.33;8.35;;;;;;;11.00;61.70;102539.19;4772107;29;119604;-88
2022/04/28 06:05:38;;;;;;;26.70;8.48;;;;;;;11.14;61.90;102549.25;4768423;29;119467;-88
2022/04/28 06:08:04;;;;;;;22.02;7.60;;;;;;;11.23;61.45;102553.06;4766760;29;119542;-87
2022/04/28 06:10:30;;;;;;;19.13;6.75;;;;;;;11.30;61.43;102552.97;4764646;29;122295;-84
2022/04/28 06:12:56;;;;;;;21.98;7.72;;;;;;;11.41;61.07;102558.38;4772973;29;121848;-89
2022/04/28 06:15:42;;;;;;;23.50;7.15;;;;;;;11.40;61.25;102550.53;4781906;29;119674;-88
2022/04/28 06:18:33;;;;;;;19.90;6.20;;;;;;;11.48;61.09;102560.25;4789887;29;119788;-88
2022/04/28 06:21:13;;;;;;;21.95;6.05;;;;;;;11.44;60.46;102545.78;4779208;29;123677;-89
2022/04/28 06:23:44;;;;;;;15.48;6.07;;;;;;;11.50;59.65;102555.88;4775915;29;119821;-90
2022/04/28 06:26:11;;;;;;;19.48;6.20;;;;;;;11.56;60.11;102562.47;4767555;29;122371;-85
2022/04/28 06:28:38;;;;;;;26.45;6.80;;;;;;;11.69;60.46;102573.72;4771356;29;119650;-88
2022/04/28 06:31:06;;;;;;;18.58;5.85;;;;;;;11.76;59.84;102576.38;4768180;29;122503;-89
2022/04/28 06:33:55;;;;;;;18.30;5.97;;;;;;;11.75;59.33;102565.78;4775921;29;120375;-86
2022/04/28 06:36:41;;;;;;;20.50;6.65;;;;;;;11.87;59.30;102573.53;4770687;29;119932;-86
2022/04/28 06:39:06;;;;;;;22.00;5.70;;;;;;;11.92;58.90;102573.84;4784886;29;119782;-89
2022/04/28 06:41:32;;;;;;;17.92;6.35;;;;;;;11.98;59.14;102569.44;4778699;29;119791;-88
2022/04/28 06:44:03;;;;;;;17.85;5.32;;;;;;;12.06;58.40;102567.34;4786437;29;119730;-87
2022/04/28 06:46:29;;;;;;;22.42;5.93;;;;;;;12.13;58.46;102575.53;4795488;29;121980;-86
2022/04/28 06:49:01;;;;;;;19.50;5.68;;;;;;;12.14;58.14;102571.59;4800572;29;119956;-89
2022/04/28 06:52:02;;;;;;;18.02;5.85;;;;;;;12.17;57.35;102569.97;4786638;29;120481;-87
2022/04/28 06:54:53;;;;;;;14.00;5.28;;;;;;;12.27;57.04;102574.53;4787248;29;120970;-87
2022/04/28 06:57:23;;;;;;;16.95;5.05;;;;;;;12.38;57.35;102579.88;4792635;29;120035;-87
2022/04/28 06:59:49;;;;;;;19.83;5.50;;;;;;;12.42;57.42;102580.59;4780061;29;121694;-87
2022/04/28 07:02:20;;;;;;;17.10;5.38;;;;;;;12.49;57.49;102574.97;4775846;29;120022;-85
2022/04/28 07:04:46;;;;;;;19.15;5.20;;;;;;;12.56;56.85;102578.41;4772831;29;120442;-86
2022/04/28 07:07:15;;;;;;;18.02;4.80;;;;;;;12.68;56.31;102584.50;4779930;29;119845;-89
2022/04/28 07:09:43;;;;;;;14.80;5.00;;;;;;;12.66;56.28;102578.66;4787667;29;119863;-86
2022/04/28 07:12:11;;;;;;;13.85;4.70;;;;;;;12.68;55.48;102579.00;4804082;29;119840;-88
2022/04/28 07:14:58;;;;;;;16.13;5.13;;;;;;;12.74;55.79;102574.56;4772648;29;119879;-89
2022/04/28 07:17:42;;;;;;;15.93;4.90;;;;;;;12.85;55.56;102586.97;4784942;29;122683;-85
2022/04/28 07:20:09;;;;;;;19.02;5.13;;;;;;;12.89;55.36;102590.44;4801039;29;119721;-85
2022/04/28 07:22:35;;;;;;;22.30;5.18;;;;;;;12.95;55.21;102590.72;4797062;29;120518;-88
2022/04/28 07:25:00;;;;;;;16.08;5.00;;;;;;;13.03;55.13;102605.19;4795971;29;119458;-87
2022/04/28 07:27:29;;;;;;;17.30;4.90;;;;;;;13.12;55.00;102605.41;4786610;29;120137;-90
2022/04/28 07:30:03;;;;;;;21.77;4.97;;;;;;;13.18;54.76;102600.97;4781217;29;121448;-86
2022/04/28 07:32:36;;;;;;;17.70;4.97;;;;;;;13.23;54.93;102599.72;4773585;29;120253;-88
2022/04/28 07:35:18;;;;;;;15.95;4.47;;;;;;;13.31;53.90;102609.41;4784091;29;122803;-85
2022/04/28 07:38:02;;;;;;;19.67;4.45;;;;;;;13.31;52.55;102595.63;4792297;29;120050;-88
2022/04/28 07:40:32;;;;;;;17.88;4.57;;;;;;;13.39;52.78;102603.34;4792084;29;120486;-85
2022/04/28 07:43:00;;;;;;;13.45;4.68;;;;;;;13.50;52.98;102606.69;4775769;29;121861;-87
2022/04/28 07:45:26;;;;;;;18.17;4.28;;;;;;;13.55;53.29;102588.84;4766774;29;120072;-87
2022/04/28 07:47:52;;;;;;;18.25;4.38;;;;;;;13.75;52.51;102608.16;4768609;29;122952;-89
2022/04/28 07:50:22;;;;;;;18.83;4.43;;;;;;;13.92;52.55;102600.69;4780494;29;123429;-85
2022/04/28 07:52:49;;;;;;;16.67;4.00;;;;;;;14.09;51.31;102596.78;4787015;29;119557;-87
2022/04/28 07:55:15;;;;;;;14.40;3.90;;;;;;;14.16;51.37;102588.31;4779646;29;120418;-88
2022/04/28 07:57:41;;;;;;;13.23;3.50;;;;;;;14.45;50.59;102607.81;4781913;29;123817;-88
2022/04/28 08:00:09;;;;;;;14.93;3.22;;;;;;;14.57;50.92;102600.81;4760048;29;122720;-86
2022/04/28 08:02:41;;;;;;;15.73;3.33;;;;;;;14.74;50.39;102611.44;4785480;29;120715;-87
2022/04/28 08:05:09;;;;;;;14.80;3.40;;;;;;;14.77;49.37;102597.97;4786168;29;119759;-87
2022/04/28 08:07:36;;;;;;;15.10;3.05;;;;;;;14.84;48.22;102597.78;4773336;29;123364;-87
2022/04/28 08:10:04;;;;;;;11.82;2.97;;;;;;;15.04;47.52;102617.81;4787867;29;120057;-87
2022/04/28 08:12:33;;;;;;;12.00;3.33;;;;;;;15.16;46.54;102617.09;4785774;29;121120;-82
2022/04/28 08:15:02;;;;;;;16.85;3.08;;;;;;;15.19;48.38;102599.63;4764932;29;123022;-87
2022/04/28 08:17:29;;;;;;;14.82;3.03;;;;;;;15.21;47.26;102591.69;4790582;29;121369;-87
2022/04/28 08:19:54;;;;;;;12.10;2.97;;;;;;;15.33;48.85;102596.47;4795422;29;121425;-87
2022/04/28 08:22:20;;;;;;;8.80;2.40;;;;;;;15.54;47.55;102613.69;4778703;29;122769;-86
2022/04/28 08:24:48;;;;;;;13.40;2.90;;;;;;;15.53;46.57;102603.84;4778792;29;120701;-85
2022/04/28 08:27:16;;;;;;;9.25;2.80;;;;;;;15.41;45.16;102576.94;4777788;29;122350;-88
2022/04/28 08:29:41;;;;;;;11.95;2.35;;;;;;;15.67;45.63;102606.25;4795534;29;121026;-88
2022/04/28 08:32:17;;;;;;;11.63;2.90;;;;;;;15.65;44.23;102606.69;4776221;29;119497;-87
2022/04/28 08:34:43;;;;;;;9.88;2.30;;;;;;;15.72;45.53;102605.69;4777838;29;123437;-86
2022/04/28 08:37:09;;;;;;;13.13;2.50;;;;;;;15.83;44.99;102613.66;4778113;29;119849;-87
2022/04/28 08:39:36;;;;;;;13.57;2.67;;;;;;;15.78;44.49;102603.16;4782844;29;119716;-87
2022/04/28 08:42:02;;;;;;;12.45;2.50;;;;;;;15.82;45.11;102604.59;4777692;29;123117;-87
2022/04/28 08:44:29;;;;;;;11.75;2.35;;;;;;;15.88;45.08;102602.84;4792878;29;120402;-86
2022/04/28 08:47:22;;;;;;;9.90;2.30;;;;;;;15.93;44.05;102610.59;4792948;29;119992;-86
2022/04/28 08:50:08;;;;;;;8.45;2.05;;;;;;;16.00;42.62;102606.06;4774865;29;121689;-88
2022/04/28 08:52:55;;;;;;;13.90;3.10;;;;;;;16.05;42.16;102624.88;4796025;29;122283;-87
2022/04/28 08:55:33;;;;;;;10.82;3.05;;;;;;;16.04;42.78;102612.25;4775524;29;122874;-88
2022/04/28 08:57:59;;;;;;;8.48;2.53;;;;;;;15.98;45.12;102595.44;4791874;29;120478;-84
2022/04/28 09:00:25;;;;;;;12.10;2.70;;;;;;;15.93;45.35;102582.94;4786468;29;120147;-86
2022/04/28 09:03:11;;;;;;;12.30;2.80;;;;;;;16.23;43.09;102630.66;4776083;29;119640;-86
2022/04/28 09:06:19;;;;;;;13.27;2.80;;;;;;;16.25;45.08;102619.91;4785056;29;119700;-87
2022/04/28 09:09:16;;;;;;;15.60;3.00;;;;;;;16.25;44.08;102623.47;4765101;29;119905;-84
2022/04/28 09:12:02;;;;;;;11.77;2.67;;;;;;;16.34;42.17;102616.50;4790052;29;123437;-87
2022/04/28 09:15:12;;;;;;;6.88;2.15;;;;;;;16.33;41.72;102632.34;4798566;29;119870;-87
2022/04/28 09:17:41;;;;;;;12.63;2.60;;;;;;;16.28;41.81;102624.56;4776886;29;123189;-87
2022/04/28 09:20:13;;;;;;;9.07;2.35;;;;;;;16.23;42.65;102617.59;4785380;29;123260;-87
2022/04/28 09:22:43;;;;;;;13.23;3.30;;;;;;;16.33;41.83;102615.72;4781438;29;119954;-88
2022/04/28 09:25:11;;;;;;;10.10;2.40;;;;;;;16.38;41.91;102626.25;4792218;29;119775;-86
2022/04/28 09:27:39;;;;;;;9.82;2.40;;;;;;;16.42;42.05;102628.91;4769202;29;122434;-86
2022/04/28 09:30:06;;;;;;;9.82;2.53;;;;;;;16.34;42.06;102599.88;4775983;29;122874;-87
2022/04/28 09:32:34;;;;;;;14.15;3.35;;;;;;;16.41;42.71;102611.50;4777789;29;125439;-86
2022/04/28 09:35:10;;;;;;;10.30;2.70;;;;;;;16.38;43.60;102604.09;4793546;29;119971;-86
2022/04/28 09:37:39;;;;;;;19.85;3.33;;;;;;;16.48;45.56;102594.66;4787236;29;120012;-86
2022/04/28 09:42:52;;;;;;;10.65;2.70;;;;;;;16.46;43.60;102594.31;4793212;29;119816;-85
2022/04/28 09:45:25;;;;;;;9.65;2.38;;;;;;;16.40;42.04;102581.50;4780762;29;121935;-85
2022/04/28 09:48:04;;;;;;;6.65;1.98;;;;;;;16.42;39.42;102581.81;4778711;29;119827;-85
2022/04/28 09:50:39;;;;;;;22.48;3.17;;;;;;;16.42;41.41;102579.81;4800204;29;120859;-84
2022/04/28 09:53:24;;;;;;;15.00;2.25;;;;;;;16.50;40.09;102592.22;4792852;29;124037;-87
2022/04/28 09:56:07;;;;;;;8.48;1.95;;;;;;;16.42;41.97;102574.28;4789717;29;119488;-85
2022/04/28 09:58:46;;;;;;;11.75;2.63;;;;;;;16.60;41.24;102595.09;4788037;29;119893;-88
2022/04/28 10:01:13;;;;;;;9.77;2.22;;;;;;;16.59;41.41;102594.31;4774571;29;123442;-86
2022/04/28 10:03:41;;;;;;;10.40;2.28;;;;;;;16.57;40.67;102592.00;4775616;29;120156;-87
2022/04/28 10:06:12;;;;;;;7.00;1.73;;;;;;;16.66;41.76;102598.84;4785701;29;120852;-85
2022/04/28 10:08:56;;;;;;;;;;;;;;;16.68;41.84;102599.19;4789173;29;123326;-86
2022/04/28 10:11:24;;;;;;;11.00;2.33;;;;;;;16.63;40.50;102585.88;4775593;29;119920;-86
2022/04/28 10:13:51;;;;;;;11.38;2.35;;;;;;;16.72;40.38;102588.78;4779075;29;122431;-83
2022/04/28 10:16:21;;;;;;;10.25;2.50;;;;;;;16.65;41.61;102589.75;4762008;29;120526;-84
2022/04/28 10:19:17;;;;;;;10.88;2.15;;;;;;;16.73;41.97;102593.09;4791238;29;122100;-85
2022/04/28 10:21:45;;;;;;;7.50;1.70;;;;;;;16.73;41.89;102593.09;4773678;29;122632;-85
2022/04/28 10:32:53;;;;;;;10.75;2.10;;;;;;;16.80;40.80;102592.88;4789121;29;119848;-85
2022/04/28 10:35:32;;;;;;;13.82;1.98;;;;;;;16.83;39.37;102591.97;4778116;29;119767;-85
2022/04/28 10:38:26;;;;;;;8.77;1.80;;;;;;;16.79;40.27;102582.97;4777128;29;119634;-85
2022/04/28 10:41:00;;;;;;;10.68;2.30;;;;;;;16.91;41.21;102586.94;4777141;29;124204;-84
2022/04/28 10:43:40;;;;;;;9.95;2.30;;;;;;;16.93;40.39;102590.81;4777866;29;124418;-86
2022/04/28 10:46:08;;;;;;;9.32;2.22;;;;;;;16.93;38.89;102601.91;4792021;29;120396;-85
2022/04/28 10:48:45;;;;;;;10.88;2.60;;;;;;;16.91;39.28;102598.81;4793861;29;120388;-84
2022/04/28 10:51:11;;;;;;;12.63;2.00;;;;;;;16.92;41.54;102608.69;4774486;29;123515;-84
2022/04/28 10:53:55;;;;;;;15.07;3.10;;;;;;;16.72;49.17;102603.41;4791469;29;119700;-84
2022/04/28 10:56:21;;;;;;;12.82;3.65;;;;;;;16.34;53.87;102606.19;4787114;29;120117;-86
2022/04/28 10:58:47;;;;;;;18.85;4.38;;;;;;;15.85;56.20;102597.41;4779374;29;122925;-85
2022/04/28 11:01:31;;;;;;;30.05;5.68;;;;;;;15.42;58.83;102608.91;4790278;29;121530;-84
2022/04/28 11:04:06;;;;;;;19.17;4.57;;;;;;;15.02;59.92;102603.63;4790631;29;121980;-83
2022/04/28 11:06:37;;;;;;;21.92;4.88;;;;;;;14.60;61.38;102608.25;4789037;29;119921;-85
2022/04/28 11:09:05;;;;;;;21.65;5.43;;;;;;;14.23;62.69;102599.22;4789253;29;120099;-85
2022/04/28 11:11:41;;;;;;;21.35;6.38;;;;;;;14.11;64.29;102613.69;4805905;29;120377;-83
2022/04/28 11:14:08;;;;;;;20.42;6.72;;;;;;;13.90;64.83;102609.41;4806649;29;120140;-85
2022/04/28 11:16:34;;;;;;;19.73;6.80;;;;;;;13.74;65.32;102612.13;4792438;29;122468;-85
2022/04/28 11:19:01;;;;;;;19.02;4.97;;;;;;;13.54;66.00;102603.84;4775823;29;123185;-85
2022/04/28 11:21:27;;;;;;;21.60;5.20;;;;;;;13.35;66.11;102596.34;4797720;29;120226;-84
2022/04/28 11:23:53;;;;;;;22.85;5.55;;;;;;;13.26;67.72;102599.66;4790951;29;120004;-86
2022/04/28 11:26:52;;;;;;;20.42;5.90;;;;;;;13.22;68.14;102604.44;4778350;29;121950;-87
2022/04/28 11:29:39;;;;;;;23.33;6.63;;;;;;;13.15;68.69;102602.56;4789977;29;123478;-84
2022/04/28 11:32:08;;;;;;;23.08;5.85;;;;;;;13.11;69.10;102610.13;4806565;29;123528;-86
2022/04/28 11:34:34;;;;;;;22.73;6.07;;;;;;;13.00;69.03;102606.00;4793631;29;122373;-83
2022/04/28 11:37:17;;;;;;;22.75;7.28;;;;;;;13.03;70.08;102610.69;4777031;29;119643;-84
2022/04/28 11:39:48;;;;;;;16.20;5.63;;;;;;;13.01;69.71;102613.06;4762548;29;123528;-87
2022/04/28 11:42:17;;;;;;;21.95;6.85;;;;;;;12.86;69.83;102596.78;4802358;29;120345;-83
2022/04/28 11:44:55;;;;;;;21.55;6.40;;;;;;;12.88;69.95;102604.63;4762229;29;122551;-84
2022/04/28 11:47:23;;;;;;;27.35;6.43;;;;;;;12.80;70.05;102615.00;4775572;29;120033;-82
2022/04/28 11:49:56;;;;;;;36.13;6.70;;;;;;;12.81;69.87;102611.06;4794499;29;121978;-85
2022/04/28 11:52:26;;;;;;;16.80;5.35;;;;;;;12.82;70.35;102618.13;4777013;29;123351;-84
2022/04/28 11:55:03;;;;;;;21.67;6.53;;;;;;;12.78;70.28;102613.88;4793495;29;120648;-86
2022/04/28 11:57:30;;;;;;;22.65;6.38;;;;;;;12.70;70.92;102604.16;4780729;29;123131;-85
2022/04/28 11:59:57;;;;;;;18.40;5.32;;;;;;;12.63;70.48;102604.28;4809468;29;120365;-86
2022/04/28 12:02:25;;;;;;;18.15;5.78;;;;;;;12.65;70.36;102610.91;4794210;29;120195;-84
2022/04/28 12:04:51;;;;;;;24.80;6.60;;;;;;;12.69;70.93;102608.88;4781002;29;121791;-85
2022/04/28 12:07:27;;;;;;;16.95;6.32;;;;;;;12.75;72.00;102604.44;4799790;29;120126;-86